Kezdőlap
METAR-TAF:

METAR-TAF

Repülőterek :

Villavicencio, Kolumbia

földrajzi szélesség: 04-10N, földrajzi hosszúság: 073-37W, magasság: 423 m

Jelenlegi meteorológiai megfigyelések

A jelentés 7 órával és 38 perccel ezelõtt készült, 01:00 UTC
Nyugat-délnyugati szél 4 kt
Hőmérséklet 22°C
Páratartalom 94%
Légköri nyomás 1013 hPa
Látótávolság 10 km, vagy több
Szórványos felhőzet 1700 lábon
Szakadozott felhőzet 9000 lábon

METAR: SKVV 260100Z 24004KT 9999 SCT017 BKN090 22/21 Q1013

Idő: 03:38 (08:38 UTC)


TAF: hiányzik

Meteorológiai megfigyelések és előrejelzések több, mint 4000 repülőtéren (METAR és TAF jelentéseket).

A térképen piros és sárga pontok jelzik az elérhető meteorológiai állomásokat.

Mozgassa az egeret a pont fölött, hogy megjelenjen az állomás neve.

Azután kattintson az időjárási megfigyelések és előrejelzések megtekintéséhez.

A térkép megváltoztatása: kattintson a fekete keresztel jelölt zöld gombra ráközelítéshez, a vonallal jelölt zöld gombra távolításhoz, vagy a zöld nyilakra a szomszédos térképek eléréséhez.


METAR-TAF: